Time;durP1;ratioP1;P1;durP2;ratioP2;P2;SDS_P1;SDS_P2;PMS_P1;PMS_P2;Temp;Humidity;BMP_temperature;BMP_pressure;BME280_temperature;BME280_humidity;BME280_pressure;Samples;Min_cycle;Max_cycle;Signal;HPM_P1;HPM_P2
2023/12/28 00:01:43;;;;;;;39.28;23.63;;;;;;;-0.29;100.00;96795.16;5050408;28;20082;-73
2023/12/28 00:04:09;;;;;;;43.05;24.30;;;;;;;-0.35;100.00;96785.84;5049584;28;20023;-73
2023/12/28 00:06:34;;;;;;;49.70;26.33;;;;;;;-0.46;100.00;96786.16;5047020;28;20025;-73
2023/12/28 00:09:00;;;;;;;38.10;23.10;;;;;;;-0.49;100.00;96785.44;5042575;28;20143;-74
2023/12/28 00:11:26;;;;;;;39.33;23.70;;;;;;;-0.50;100.00;96789.75;5051547;28;20086;-74
2023/12/28 00:13:51;;;;;;;32.13;18.60;;;;;;;-0.54;100.00;96784.72;5050494;28;20024;-74
2023/12/28 00:16:16;;;;;;;62.90;36.08;;;;;;;-0.63;100.00;96791.03;5047694;28;20569;-74
2023/12/28 00:18:42;;;;;;;55.30;31.02;;;;;;;-0.63;100.00;96794.44;5053242;28;20489;-74
2023/12/28 00:21:07;;;;;;;49.42;30.85;;;;;;;-0.64;100.00;96802.28;5050691;28;20025;-75
2023/12/28 00:23:33;;;;;;;44.20;28.83;;;;;;;-0.68;100.00;96801.50;5052166;28;20032;-74
2023/12/28 00:25:58;;;;;;;36.70;23.77;;;;;;;-0.70;100.00;96800.69;5048599;28;20096;-74
2023/12/28 00:28:23;;;;;;;32.50;21.50;;;;;;;-0.71;100.00;96793.84;5048700;28;20033;-74
2023/12/28 00:30:49;;;;;;;27.40;18.85;;;;;;;-0.71;100.00;96801.59;5051926;28;20553;-74
2023/12/28 00:33:14;;;;;;;32.75;23.13;;;;;;;-0.66;100.00;96804.88;5047391;28;20055;-74
2023/12/28 00:35:40;;;;;;;37.55;22.83;;;;;;;-0.67;100.00;96810.09;5048464;28;20047;-73
2023/12/28 00:38:05;;;;;;;31.02;22.20;;;;;;;-0.68;100.00;96811.84;5043889;28;20042;-74
2023/12/28 00:40:30;;;;;;;33.25;20.80;;;;;;;-0.73;100.00;96805.97;5051335;28;20013;-74
2023/12/28 00:42:56;;;;;;;32.80;19.88;;;;;;;-0.73;100.00;96811.16;5043646;28;20119;-74
2023/12/28 00:45:21;;;;;;;30.83;22.17;;;;;;;-0.80;100.00;96813.06;5049078;28;20053;-74
2023/12/28 00:47:46;;;;;;;31.65;20.00;;;;;;;-0.83;100.00;96813.16;5048543;28;20061;-74
2023/12/28 00:50:12;;;;;;;26.27;17.10;;;;;;;-0.88;100.00;96815.84;5051251;28;20059;-74
2023/12/28 00:52:38;;;;;;;29.73;19.33;;;;;;;-0.93;100.00;96817.72;5049534;28;20020;-74
2023/12/28 00:55:04;;;;;;;26.67;18.08;;;;;;;-0.89;100.00;96819.34;5048972;28;20032;-74
2023/12/28 00:57:30;;;;;;;28.20;17.15;;;;;;;-0.86;100.00;96831.34;5047182;28;20032;-74
2023/12/28 00:59:55;;;;;;;28.25;18.58;;;;;;;-0.88;100.00;96823.63;5048423;28;20031;-74
2023/12/28 01:02:21;;;;;;;25.20;18.13;;;;;;;-0.88;100.00;96826.19;5049571;28;20040;-74
2023/12/28 01:04:46;;;;;;;24.13;18.73;;;;;;;-0.90;100.00;96821.94;5048378;28;20029;-74
2023/12/28 01:07:11;;;;;;;26.80;18.85;;;;;;;-0.88;100.00;96828.78;5048857;28;20032;-74
2023/12/28 01:09:37;;;;;;;24.42;18.65;;;;;;;-0.94;100.00;96820.34;5052219;28;20025;-74
2023/12/28 01:12:03;;;;;;;24.65;18.00;;;;;;;-0.92;100.00;96808.22;5047733;28;20032;-74
2023/12/28 01:14:28;;;;;;;27.65;17.42;;;;;;;-0.97;100.00;96807.50;5051960;28;20052;-74
2023/12/28 01:16:53;;;;;;;22.48;15.63;;;;;;;-1.03;100.00;96811.97;5051659;28;20110;-74
2023/12/28 01:19:19;;;;;;;22.10;16.88;;;;;;;-1.05;100.00;96806.00;5048391;28;20029;-74
2023/12/28 01:21:44;;;;;;;24.05;16.48;;;;;;;-1.06;100.00;96803.44;5050451;28;20466;-74
2023/12/28 01:24:10;;;;;;;24.38;17.00;;;;;;;-1.14;100.00;96802.81;5053568;28;20033;-74
2023/12/28 01:26:36;;;;;;;20.25;15.60;;;;;;;-1.13;100.00;96804.53;5054663;28;20056;-74
2023/12/28 01:29:04;;;;;;;22.55;15.75;;;;;;;-1.08;100.00;96803.50;5046701;28;20036;-74
2023/12/28 01:31:29;;;;;;;22.75;15.23;;;;;;;-1.10;100.00;96812.19;5047029;28;20033;-74
2023/12/28 01:33:55;;;;;;;19.65;15.07;;;;;;;-1.14;100.00;96806.25;5046008;28;20024;-74
2023/12/28 01:36:21;;;;;;;19.58;15.18;;;;;;;-1.09;100.00;96811.28;5050151;28;20033;-74
2023/12/28 01:38:47;;;;;;;17.38;13.73;;;;;;;-1.12;100.00;96803.63;5054335;28;20032;-74
2023/12/28 01:41:13;;;;;;;19.48;13.18;;;;;;;-0.92;100.00;96791.00;5050081;28;20577;-74
2023/12/28 01:43:39;;;;;;;18.85;14.32;;;;;;;-0.96;100.00;96804.91;5050728;28;20033;-74
2023/12/28 01:46:16;;;;;;;25.00;15.25;;;;;;;-0.95;100.00;96797.97;5042746;28;20393;-74
2023/12/28 01:48:45;;;;;;;21.13;13.52;;;;;;;-1.03;100.00;96795.59;5053157;28;20123;-74
2023/12/28 01:51:11;;;;;;;18.25;14.45;;;;;;;-1.05;100.00;96792.22;5051120;28;20037;-74
2023/12/28 01:53:37;;;;;;;23.60;16.17;;;;;;;-1.10;100.00;96788.91;5054079;28;20512;-74
2023/12/28 01:56:03;;;;;;;21.17;13.32;;;;;;;-1.08;100.00;96784.56;5053845;28;20025;-74
2023/12/28 01:58:32;;;;;;;19.15;13.88;;;;;;;-1.10;100.00;96778.59;5053425;28;20504;-74
2023/12/28 02:00:58;;;;;;;16.50;13.05;;;;;;;-1.07;100.00;96788.84;5048325;28;20528;-73
2023/12/28 02:03:23;;;;;;;27.45;15.23;;;;;;;-0.75;100.00;96792.25;5045804;28;20466;-73
2023/12/28 02:05:49;;;;;;;22.02;12.65;;;;;;;-0.45;100.00;96792.19;5048442;28;20064;-73
2023/12/28 02:08:14;;;;;;;19.77;12.40;;;;;;;-0.42;100.00;96792.09;5045836;28;20029;-73
2023/12/28 02:10:40;;;;;;;19.25;13.43;;;;;;;-0.54;100.00;96795.09;5045321;28;20036;-74
2023/12/28 02:13:05;;;;;;;19.98;13.07;;;;;;;-0.64;100.00;96800.50;5052384;28;20029;-73
2023/12/28 02:15:31;;;;;;;18.77;12.70;;;;;;;-0.75;100.00;96794.81;5052459;28;20029;-74
2023/12/28 02:18:05;;;;;;;22.20;13.10;;;;;;;-0.83;100.00;96804.53;5048850;28;20025;-74
2023/12/28 02:20:33;;;;;;;16.50;12.02;;;;;;;-0.90;100.00;96802.13;5044493;28;20025;-74
2023/12/28 02:23:00;;;;;;;18.70;12.48;;;;;;;-0.97;100.00;96807.50;5049371;28;20138;-73
2023/12/28 02:25:25;;;;;;;15.70;11.32;;;;;;;-1.07;100.00;96814.69;5053706;28;20037;-73
2023/12/28 02:27:50;;;;;;;14.05;10.68;;;;;;;-1.13;100.00;96820.03;5051079;28;20027;-73
2023/12/28 02:30:18;;;;;;;15.73;11.32;;;;;;;-1.20;100.00;96825.38;5053103;28;20039;-73
2023/12/28 02:33:02;;;;;;;10.50;8.57;;;;;;;-1.25;100.00;96834.97;5049328;28;20104;-73
2023/12/28 02:35:33;;;;;;;14.13;10.52;;;;;;;-1.14;100.00;96849.34;5055450;28;20040;-73
2023/12/28 02:38:03;;;;;;;12.27;10.85;;;;;;;-1.11;100.00;96844.09;5047574;28;20025;-74
2023/12/28 02:40:33;;;;;;;16.90;11.20;;;;;;;-1.10;100.00;96854.41;5054542;28;20032;-73
2023/12/28 02:42:58;;;;;;;16.52;11.43;;;;;;;-1.06;100.00;96855.16;5053463;28;20037;-73
2023/12/28 02:45:23;;;;;;;14.20;11.40;;;;;;;-1.06;100.00;96849.97;5051284;28;20039;-73
2023/12/28 02:47:49;;;;;;;19.35;13.63;;;;;;;-1.10;100.00;96851.81;5049870;28;20041;-73
2023/12/28 02:50:14;;;;;;;15.82;11.88;;;;;;;-1.11;100.00;96855.25;5053153;28;20040;-73
2023/12/28 02:52:39;;;;;;;16.40;11.98;;;;;;;-1.19;100.00;96854.63;5046091;28;20112;-73
2023/12/28 02:55:06;;;;;;;14.20;11.45;;;;;;;-1.29;100.00;96854.03;5047365;28;20024;-73
2023/12/28 02:57:31;;;;;;;15.45;11.38;;;;;;;-1.37;100.00;96843.06;5051917;28;20620;-73
2023/12/28 02:59:56;;;;;;;16.58;11.88;;;;;;;-1.40;100.00;96841.38;5045931;28;20059;-73
2023/12/28 03:02:23;;;;;;;16.25;12.07;;;;;;;-1.33;100.00;96842.09;5053447;28;20386;-73
2023/12/28 03:04:48;;;;;;;15.25;10.90;;;;;;;-1.33;100.00;96835.19;5052153;28;20036;-74
2023/12/28 03:07:14;;;;;;;16.83;11.38;;;;;;;-1.27;100.00;96835.91;5047779;28;20024;-73
2023/12/28 03:09:39;;;;;;;17.77;11.70;;;;;;;-1.25;100.00;96834.13;5045328;28;20031;-73
2023/12/28 03:12:06;;;;;;;15.63;10.45;;;;;;;-1.28;100.00;96827.28;5049655;28;20488;-73
2023/12/28 03:14:31;;;;;;;17.15;10.98;;;;;;;-1.34;100.00;96833.47;5052468;28;20024;-72
2023/12/28 03:16:56;;;;;;;14.13;11.23;;;;;;;-1.35;100.00;96821.44;5050009;28;20094;-73
2023/12/28 03:19:22;;;;;;;19.52;11.85;;;;;;;-1.32;100.00;96820.53;5052932;28;20028;-73
2023/12/28 03:21:47;;;;;;;18.60;11.73;;;;;;;-1.35;100.00;96810.28;5051131;28;20029;-73
2023/12/28 03:24:12;;;;;;;14.27;10.80;;;;;;;-1.33;100.00;96803.31;5048544;28;20025;-73
2023/12/28 03:26:41;;;;;;;19.27;12.13;;;;;;;-1.32;100.00;96805.03;5052082;28;20111;-73
2023/12/28 03:29:07;;;;;;;16.73;12.05;;;;;;;-1.33;100.00;96793.84;5047957;28;20070;-73
2023/12/28 03:31:33;;;;;;;16.83;12.90;;;;;;;-1.39;100.00;96798.34;5043887;28;20056;-73
2023/12/28 03:33:59;;;;;;;17.38;12.20;;;;;;;-1.40;100.00;96797.47;5049132;28;20055;-73
2023/12/28 03:36:25;;;;;;;13.68;10.73;;;;;;;-1.41;100.00;96805.28;5049467;28;20627;-74
2023/12/28 03:38:50;;;;;;;16.25;11.55;;;;;;;-1.41;100.00;96800.13;5049955;28;20075;-73
2023/12/28 03:41:19;;;;;;;18.05;11.00;;;;;;;-1.41;100.00;96794.94;5053082;28;20048;-73
2023/12/28 03:43:48;;;;;;;17.42;11.93;;;;;;;-1.46;100.00;96793.31;5050443;28;20063;-73
2023/12/28 03:46:13;;;;;;;22.02;12.85;;;;;;;-1.49;100.00;96792.56;5045923;28;20021;-73
2023/12/28 03:48:39;;;;;;;17.90;11.75;;;;;;;-1.49;100.00;96792.56;5042924;28;20036;-73
2023/12/28 03:51:05;;;;;;;18.55;12.63;;;;;;;-1.52;100.00;96790.91;5047294;28;20028;-73
2023/12/28 03:53:31;;;;;;;18.38;13.40;;;;;;;-1.47;100.00;96791.63;5049779;28;20084;-73
2023/12/28 03:55:59;;;;;;;17.88;12.10;;;;;;;-1.41;100.00;96785.44;5051547;28;20025;-73
2023/12/28 03:58:25;;;;;;;13.98;11.60;;;;;;;-1.44;100.00;96775.19;5050387;28;20523;-73
2023/12/28 04:00:51;;;;;;;18.00;12.27;;;;;;;-1.50;100.00;96781.38;5046415;28;20029;-73
2023/12/28 04:03:16;;;;;;;15.13;12.32;;;;;;;-1.51;100.00;96782.25;5051832;28;20063;-73
2023/12/28 04:05:43;;;;;;;14.88;11.73;;;;;;;-1.49;100.00;96770.16;5045846;28;20028;-73
2023/12/28 04:08:08;;;;;;;16.63;11.40;;;;;;;-1.50;100.00;96776.19;5041562;28;20021;-74
2023/12/28 04:10:34;;;;;;;14.40;11.27;;;;;;;-1.46;100.00;96766.66;5047244;28;20132;-73
2023/12/28 04:13:00;;;;;;;16.98;11.75;;;;;;;-1.46;100.00;96764.88;5049439;28;20025;-73
2023/12/28 04:15:28;;;;;;;16.35;11.60;;;;;;;-1.50;100.00;96765.88;5047890;28;20048;-73
2023/12/28 04:17:53;;;;;;;12.45;11.05;;;;;;;-1.48;100.00;96769.25;5049828;28;20114;-73
2023/12/28 04:20:19;;;;;;;15.32;10.35;;;;;;;-1.47;100.00;96775.28;5052594;28;20021;-73
2023/12/28 04:22:44;;;;;;;14.02;12.40;;;;;;;-1.51;100.00;96774.50;5052496;28;20413;-73
2023/12/28 04:25:10;;;;;;;18.60;14.55;;;;;;;-1.43;100.00;96779.47;5052399;28;20551;-73
2023/12/28 04:27:36;;;;;;;19.48;14.63;;;;;;;-1.42;100.00;96777.75;5051635;28;20512;-74
2023/12/28 04:30:02;;;;;;;23.05;16.92;;;;;;;-1.37;100.00;96781.06;5052505;28;20017;-73
2023/12/28 04:32:27;;;;;;;28.98;18.80;;;;;;;-1.32;100.00;96777.47;5051319;28;20033;-73
2023/12/28 04:34:53;;;;;;;27.98;19.58;;;;;;;-1.26;100.00;96778.16;5052209;28;20032;-73
2023/12/28 04:37:19;;;;;;;32.17;21.20;;;;;;;-1.26;100.00;96773.84;5049610;28;20164;-74
2023/12/28 04:39:45;;;;;;;26.70;19.33;;;;;;;-1.23;100.00;96773.75;5054290;28;20045;-73
2023/12/28 04:42:11;;;;;;;26.25;18.55;;;;;;;-1.28;100.00;96770.44;5052610;28;20045;-73
2023/12/28 04:44:39;;;;;;;25.45;19.02;;;;;;;-1.26;100.00;96779.00;5052218;28;20033;-73
2023/12/28 04:47:05;;;;;;;28.48;18.67;;;;;;;-1.31;100.00;96771.41;5053709;28;20468;-74
2023/12/28 04:49:30;;;;;;;29.15;18.75;;;;;;;-1.32;100.00;96774.88;5052058;28;20033;-73
2023/12/28 04:51:56;;;;;;;23.67;17.02;;;;;;;-1.39;100.00;96775.91;5049679;28;20028;-73
2023/12/28 04:54:22;;;;;;;25.23;15.77;;;;;;;-1.46;100.00;96767.47;5053235;28;20060;-73
2023/12/28 04:56:47;;;;;;;23.42;16.00;;;;;;;-1.45;100.00;96768.34;5053675;28;20032;-73
2023/12/28 04:59:13;;;;;;;23.52;16.33;;;;;;;-1.38;100.00;96769.03;5055577;28;20082;-73
2023/12/28 05:01:42;;;;;;;23.98;15.95;;;;;;;-1.33;100.00;96774.91;5049546;28;20024;-73
2023/12/28 05:04:07;;;;;;;20.70;15.85;;;;;;;-1.37;100.00;96781.06;5057102;28;20086;-73
2023/12/28 05:06:33;;;;;;;23.73;17.85;;;;;;;-1.41;100.00;96779.44;5053689;28;20111;-73
2023/12/28 05:08:58;;;;;;;27.63;18.23;;;;;;;-1.44;100.00;96782.94;5050420;28;20017;-73
2023/12/28 05:11:24;;;;;;;25.45;18.02;;;;;;;-1.47;100.00;96780.44;5057235;28;20021;-73
2023/12/28 05:13:49;;;;;;;27.17;17.60;;;;;;;-1.49;100.00;96780.47;5053527;28;20021;-73
2023/12/28 05:16:14;;;;;;;29.88;17.83;;;;;;;-1.49;100.00;96777.91;5054056;28;20021;-73
2023/12/28 05:18:40;;;;;;;23.95;17.13;;;;;;;-1.50;100.00;96780.53;5056037;28;20036;-73
2023/12/28 05:21:05;;;;;;;26.77;18.00;;;;;;;-1.51;100.00;96768.50;5057351;28;20017;-73
2023/12/28 05:23:30;;;;;;;22.65;16.63;;;;;;;-1.55;100.00;96778.06;5056052;28;20021;-74
2023/12/28 05:25:56;;;;;;;25.77;14.95;;;;;;;-1.58;100.00;96775.56;5056641;28;20500;-73
2023/12/28 05:28:21;;;;;;;18.25;13.85;;;;;;;-1.52;100.00;96770.22;5055585;28;20021;-73
2023/12/28 05:30:46;;;;;;;17.23;13.60;;;;;;;-1.53;100.00;96776.28;5053208;28;20052;-73
2023/12/28 05:33:12;;;;;;;21.20;14.77;;;;;;;-1.59;100.00;96779.88;5056237;28;20048;-73
2023/12/28 05:35:37;;;;;;;19.05;14.25;;;;;;;-1.57;100.00;96782.44;5056750;28;20021;-73
2023/12/28 05:38:03;;;;;;;17.65;13.25;;;;;;;-1.56;100.00;96783.25;5054373;28;20025;-74
2023/12/28 05:40:30;;;;;;;18.15;13.02;;;;;;;-1.60;100.00;96798.00;5049516;28;20025;-73
2023/12/28 05:42:55;;;;;;;17.90;13.82;;;;;;;-1.59;100.00;96786.78;5050244;28;20170;-73
2023/12/28 05:45:21;;;;;;;17.08;13.38;;;;;;;-1.59;100.00;96785.03;5055022;28;20019;-74
2023/12/28 05:47:46;;;;;;;17.25;12.20;;;;;;;-1.62;100.00;96771.38;5052128;28;20040;-74
2023/12/28 05:50:12;;;;;;;15.25;12.57;;;;;;;-1.63;100.00;96767.94;5053946;28;20056;-73
2023/12/28 05:52:37;;;;;;;17.23;12.68;;;;;;;-1.64;100.00;96770.56;5055374;28;20088;-73
2023/12/28 05:55:04;;;;;;;19.15;13.32;;;;;;;-1.64;100.00;96762.84;5055979;28;20025;-73
2023/12/28 05:57:30;;;;;;;24.23;13.57;;;;;;;-1.68;100.00;96761.19;5054648;28;20025;-73
2023/12/28 05:59:56;;;;;;;19.15;14.30;;;;;;;-1.74;100.00;96763.06;5051825;28;20016;-73
2023/12/28 06:02:22;;;;;;;17.05;13.35;;;;;;;-1.75;100.00;96776.84;5047021;28;20104;-73
2023/12/28 06:04:47;;;;;;;16.85;11.52;;;;;;;-1.70;100.00;96773.28;5053873;28;20013;-73
2023/12/28 06:07:12;;;;;;;18.92;13.00;;;;;;;-1.66;100.00;96780.06;5050422;28;20055;-73
2023/12/28 06:09:38;;;;;;;15.15;12.40;;;;;;;-1.60;100.00;96777.34;5055172;28;20394;-72
2023/12/28 06:12:05;;;;;;;15.00;11.27;;;;;;;-1.61;100.00;96778.25;5054538;28;20021;-73
2023/12/28 06:14:30;;;;;;;19.85;12.85;;;;;;;-1.67;100.00;96781.81;5049923;28;20169;-73
2023/12/28 06:16:55;;;;;;;18.92;13.20;;;;;;;-1.73;100.00;96780.25;5056424;28;20078;-74
2023/12/28 06:19:22;;;;;;;21.35;13.02;;;;;;;-1.68;100.00;96780.13;5049266;28;20037;-73
2023/12/28 06:21:50;;;;;;;17.30;13.68;;;;;;;-1.65;100.00;96780.03;5054851;28;20021;-74
2023/12/28 06:24:16;;;;;;;26.00;16.00;;;;;;;-1.70;100.00;96784.50;5055722;28;20021;-74
2023/12/28 06:26:42;;;;;;;24.48;16.10;;;;;;;-1.71;100.00;96793.13;5053522;28;20070;-73
2023/12/28 06:29:09;;;;;;;26.58;17.42;;;;;;;-1.67;100.00;96799.03;5052808;28;20082;-73
2023/12/28 06:31:36;;;;;;;26.13;18.80;;;;;;;-1.64;100.00;96804.97;5050514;28;20112;-73
2023/12/28 06:34:05;;;;;;;31.50;20.80;;;;;;;-1.63;100.00;96805.84;5054511;28;20394;-73
2023/12/28 06:36:31;;;;;;;30.08;19.80;;;;;;;-1.73;100.00;96805.22;5053414;28;20076;-73
2023/12/28 06:38:57;;;;;;;31.70;19.58;;;;;;;-1.76;100.00;96803.56;5055253;28;20021;-73
2023/12/28 06:41:23;;;;;;;25.83;17.75;;;;;;;-1.75;100.00;96802.66;5052078;28;20021;-73
2023/12/28 06:43:48;;;;;;;29.63;18.65;;;;;;;-1.68;100.00;96797.34;5049172;28;20067;-73
2023/12/28 06:46:13;;;;;;;25.95;19.60;;;;;;;-1.69;100.00;96793.06;5051245;28;20561;-73
2023/12/28 06:48:40;;;;;;;30.30;21.65;;;;;;;-1.73;100.00;96790.56;5049222;28;20117;-74
2023/12/28 06:51:06;;;;;;;33.70;20.25;;;;;;;-1.73;100.00;96782.81;5050660;28;20041;-75
2023/12/28 06:53:31;;;;;;;25.98;18.80;;;;;;;-1.68;100.00;96780.13;5052655;28;20025;-74
2023/12/28 06:55:57;;;;;;;28.38;23.80;;;;;;;-1.67;100.00;96773.22;5053875;28;20891;-74
2023/12/28 06:58:22;;;;;;;27.65;19.70;;;;;;;-1.71;100.00;96767.31;5052245;28;20025;-74
2023/12/28 07:00:48;;;;;;;25.50;18.05;;;;;;;-1.67;100.00;96768.03;5050877;28;20021;-74
2023/12/28 07:03:13;;;;;;;25.95;19.83;;;;;;;-1.66;100.00;96764.56;5047877;28;20028;-74
2023/12/28 07:05:39;;;;;;;28.88;21.83;;;;;;;-1.65;100.00;96761.13;5052372;28;20045;-74
2023/12/28 07:08:04;;;;;;;30.90;24.67;;;;;;;-1.61;100.00;96765.31;5052013;28;20036;-74
2023/12/28 07:10:30;;;;;;;35.30;25.92;;;;;;;-1.56;100.00;96766.03;5055098;28;20385;-74
2023/12/28 07:12:55;;;;;;;32.03;23.83;;;;;;;-1.52;100.00;96767.66;5051590;28;20079;-73
2023/12/28 07:15:20;;;;;;;37.58;29.73;;;;;;;-1.32;100.00;96774.88;5043231;28;20057;-74
2023/12/28 07:17:46;;;;;;;34.70;28.42;;;;;;;-1.38;100.00;96780.19;5055664;28;20029;-73
2023/12/28 07:20:11;;;;;;;32.80;25.23;;;;;;;-1.38;100.00;96789.69;5047932;28;20435;-74
2023/12/28 07:22:37;;;;;;;35.67;28.73;;;;;;;-1.38;100.00;96790.53;5052225;28;20493;-74
2023/12/28 07:25:07;;;;;;;39.97;30.65;;;;;;;-1.32;100.00;96792.97;5046905;28;20037;-74
2023/12/28 07:27:34;;;;;;;40.53;33.70;;;;;;;-1.28;100.00;96791.13;5051240;28;20469;-74
2023/12/28 07:30:00;;;;;;;47.15;36.33;;;;;;;-1.25;100.00;96798.78;5053903;28;20024;-74
2023/12/28 07:32:28;;;;;;;29.38;24.25;;;;;;;-1.14;100.00;96798.50;5053036;28;20070;-72
2023/12/28 07:34:54;;;;;;;43.67;33.90;;;;;;;-1.06;100.00;96796.56;5053727;28;20021;-73
2023/12/28 07:37:19;;;;;;;44.67;34.95;;;;;;;-1.04;100.00;96804.25;5052078;28;20492;-73
2023/12/28 07:39:44;;;;;;;44.42;31.20;;;;;;;-1.04;100.00;96796.50;5052201;28;20056;-72
2023/12/28 07:42:10;;;;;;;41.42;28.25;;;;;;;-1.02;100.00;96797.28;5048625;28;20029;-71
2023/12/28 07:44:35;;;;;;;29.20;24.00;;;;;;;-1.01;100.00;96788.66;5050165;28;20117;-74
2023/12/28 07:47:01;;;;;;;34.45;25.58;;;;;;;-0.95;100.00;96783.31;5051287;28;20048;-74
2023/12/28 07:49:27;;;;;;;32.28;26.38;;;;;;;-0.81;100.00;96780.34;5051288;28;20029;-74
2023/12/28 07:51:52;;;;;;;31.33;25.02;;;;;;;-0.82;100.00;96781.22;5051586;28;20017;-74
2023/12/28 07:54:18;;;;;;;30.80;25.15;;;;;;;-0.81;100.00;96789.81;5049982;28;20378;-73
2023/12/28 07:56:43;;;;;;;38.40;28.50;;;;;;;-0.80;100.00;96796.69;5049496;28;20478;-74
2023/12/28 07:59:09;;;;;;;33.40;26.83;;;;;;;-0.79;100.00;96806.13;5051548;28;20096;-69
2023/12/28 08:01:35;;;;;;;26.83;21.60;;;;;;;-0.62;100.00;96821.19;5051387;28;20075;-73
2023/12/28 08:04:01;;;;;;;22.65;17.90;;;;;;;-0.26;100.00;96823.53;5043454;28;20100;-72
2023/12/28 08:06:27;;;;;;;18.60;15.38;;;;;;;-0.08;100.00;96829.03;5049319;28;20029;-72
2023/12/28 08:08:53;;;;;;;22.10;18.50;;;;;;;-0.09;100.00;96832.50;5051168;28;20079;-74
2023/12/28 08:11:19;;;;;;;24.38;21.02;;;;;;;-0.15;100.00;96830.97;5053362;28;20064;-73
2023/12/28 08:13:44;;;;;;;30.08;22.02;;;;;;;-0.18;100.00;96823.28;5049448;28;20024;-75
2023/12/28 08:16:10;;;;;;;23.08;18.60;;;;;;;-0.16;100.00;96818.91;5046856;28;20029;-74
2023/12/28 08:18:35;;;;;;;19.08;16.60;;;;;;;-0.13;100.00;96812.81;5048693;28;20068;-76
2023/12/28 08:21:01;;;;;;;22.98;17.27;;;;;;;-0.11;100.00;96805.81;5044426;28;20023;-74
2023/12/28 08:23:26;;;;;;;24.35;20.77;;;;;;;-0.08;100.00;96809.19;5044378;28;20033;-74
2023/12/28 08:25:51;;;;;;;24.17;20.30;;;;;;;-0.01;100.00;96802.03;5050089;28;20519;-75
2023/12/28 08:28:17;;;;;;;24.00;20.30;;;;;;;0.02;100.00;96799.38;5050062;28;20504;-73
2023/12/28 08:30:42;;;;;;;24.38;20.90;;;;;;;0.08;100.00;96800.91;5051023;28;20502;-74
2023/12/28 08:33:08;;;;;;;23.50;20.77;;;;;;;0.10;100.00;96802.53;5044340;28;20056;-74
2023/12/28 08:35:33;;;;;;;24.45;21.10;;;;;;;0.16;100.00;96798.06;5043609;28;20053;-72
2023/12/28 08:37:59;;;;;;;31.20;24.70;;;;;;;0.27;100.00;96799.38;5047830;28;20032;-73
2023/12/28 08:40:25;;;;;;;27.08;22.92;;;;;;;0.35;100.00;96804.31;5051176;28;20032;-73
2023/12/28 08:42:51;;;;;;;24.25;19.08;;;;;;;0.41;100.00;96795.50;5044842;28;20317;-73
2023/12/28 08:45:16;;;;;;;26.25;21.17;;;;;;;0.47;100.00;96791.88;5037551;28;20033;-70
2023/12/28 08:47:41;;;;;;;25.20;22.15;;;;;;;0.51;100.00;96785.66;5049666;28;20156;-72
2023/12/28 08:50:07;;;;;;;40.17;29.40;;;;;;;0.54;100.00;96786.38;5047520;28;20029;-73
2023/12/28 08:52:33;;;;;;;37.65;28.80;;;;;;;0.60;100.00;96782.75;5049291;28;20159;-72
2023/12/28 08:54:59;;;;;;;41.10;29.95;;;;;;;0.67;100.00;96778.19;5048953;28;20036;-72
2023/12/28 08:57:24;;;;;;;42.50;31.55;;;;;;;0.73;100.00;96788.34;5051949;28;20025;-72
2023/12/28 08:59:50;;;;;;;40.22;31.30;;;;;;;0.79;100.00;96787.28;5049592;28;20036;-75
2023/12/28 09:02:15;;;;;;;33.33;28.80;;;;;;;0.84;100.00;96782.78;5049513;28;20032;-73
2023/12/28 09:04:40;;;;;;;33.63;27.95;;;;;;;0.91;100.00;96788.59;5052460;28;20555;-72
2023/12/28 09:07:06;;;;;;;38.20;29.27;;;;;;;0.97;100.00;96785.75;5051585;28;20464;-72
2023/12/28 09:09:31;;;;;;;34.70;29.77;;;;;;;1.06;100.00;96789.78;5051571;28;20037;-71
2023/12/28 09:11:56;;;;;;;23.48;20.92;;;;;;;1.14;100.00;96796.38;5051790;28;20440;-73
2023/12/28 09:14:22;;;;;;;30.27;22.27;;;;;;;1.22;100.00;96809.06;5045763;28;20029;-73
2023/12/28 09:16:47;;;;;;;21.48;18.10;;;;;;;1.31;100.00;96812.22;5050984;28;20385;-72
2023/12/28 09:19:13;;;;;;;22.80;17.55;;;;;;;1.34;100.00;96805.16;5047192;28;20034;-73
2023/12/28 09:21:38;;;;;;;23.10;17.92;;;;;;;1.47;100.00;96804.72;5052974;28;20028;-75
2023/12/28 09:24:04;;;;;;;19.27;15.90;;;;;;;1.63;100.00;96804.97;5048703;28;20592;-74
2023/12/28 09:26:29;;;;;;;23.13;17.10;;;;;;;1.66;100.00;96810.91;5047825;28;20031;-73
2023/12/28 09:28:55;;;;;;;22.40;17.50;;;;;;;1.80;100.00;96812.09;5044260;28;20036;-75
2023/12/28 09:31:20;;;;;;;21.10;15.18;;;;;;;1.86;100.00;96815.28;5046019;28;20032;-73
2023/12/28 09:33:46;;;;;;;19.00;14.00;;;;;;;1.92;100.00;96815.94;5049975;28;20509;-73
2023/12/28 09:36:15;;;;;;;17.67;14.75;;;;;;;1.99;100.00;96812.22;5050223;28;20102;-75
2023/12/28 09:38:40;;;;;;;21.27;14.90;;;;;;;2.05;100.00;96813.72;5051858;28;20033;-74
2023/12/28 09:41:16;;;;;;;38.30;28.75;;;;;;;2.11;100.00;96811.72;5049946;28;20083;-73
2023/12/28 09:44:13;;;;;;;23.35;17.80;;;;;;;2.11;100.00;96803.09;5053908;28;20029;-74
2023/12/28 09:46:42;;;;;;;20.60;17.88;;;;;;;2.20;100.00;96804.44;5051291;28;20055;-73
2023/12/28 09:49:09;;;;;;;18.25;13.27;;;;;;;2.29;100.00;96799.72;5050912;28;20033;-76
2023/12/28 09:51:35;;;;;;;19.55;16.65;;;;;;;2.43;100.00;96804.34;5054925;28;20044;-73
2023/12/28 09:54:03;;;;;;;21.48;14.52;;;;;;;2.45;100.00;96809.47;5050513;28;20021;-77
2023/12/28 09:56:29;;;;;;;21.27;18.02;;;;;;;2.54;100.00;96813.44;5052592;28;20060;-75
2023/12/28 09:58:56;;;;;;;15.70;13.90;;;;;;;2.82;100.00;96807.06;5051831;28;20040;-78
2023/12/28 10:01:22;;;;;;;22.52;16.75;;;;;;;2.94;100.00;96795.28;5053309;28;20035;-75
2023/12/28 10:03:47;;;;;;;18.25;16.13;;;;;;;3.02;100.00;96777.59;5053068;28;20482;-74
2023/12/28 10:06:15;;;;;;;20.38;17.10;;;;;;;3.18;100.00;96782.94;5052557;28;20036;-75
2023/12/28 10:08:47;;;;;;;23.23;18.15;;;;;;;3.08;100.00;96776.44;5053700;28;20036;-75
2023/12/28 10:11:16;;;;;;;21.13;17.35;;;;;;;3.14;100.00;96769.22;5054696;28;20044;-76
2023/12/28 10:13:43;;;;;;;26.60;19.17;;;;;;;3.24;100.00;96771.41;5054321;28;20028;-77
2023/12/28 10:16:10;;;;;;;19.52;16.58;;;;;;;3.37;100.00;96766.47;5054273;28;20094;-76
2023/12/28 10:18:36;;;;;;;25.50;19.73;;;;;;;3.50;100.00;96767.56;5051592;28;20104;-75
2023/12/28 10:21:02;;;;;;;29.52;24.10;;;;;;;3.65;100.00;96766.03;5053337;28;20063;-73
2023/12/28 10:23:27;;;;;;;29.65;26.02;;;;;;;3.81;100.00;96762.69;5052085;28;20032;-76
2023/12/28 10:25:56;;;;;;;28.15;22.80;;;;;;;3.99;100.00;96764.41;5054603;28;20417;-79
2023/12/28 10:28:21;;;;;;;24.42;20.85;;;;;;;4.15;100.00;96763.66;5051666;28;20029;-77
2023/12/28 10:30:47;;;;;;;21.63;18.90;;;;;;;4.29;100.00;96760.38;5051359;28;20029;-76
2023/12/28 10:33:14;;;;;;;21.73;19.13;;;;;;;4.49;100.00;96758.50;5051050;28;20047;-77
2023/12/28 10:35:39;;;;;;;23.63;19.75;;;;;;;4.63;100.00;96748.19;5052912;28;20459;-79
2023/12/28 10:38:07;;;;;;;28.67;19.42;;;;;;;4.81;100.00;96756.84;5055223;28;20020;-74
2023/12/28 10:40:32;;;;;;;22.73;18.42;;;;;;;5.08;100.00;96742.41;5047568;28;20039;-73
2023/12/28 10:43:01;;;;;;;32.70;25.00;;;;;;;5.30;100.00;96732.53;5053325;28;20025;-73
2023/12/28 10:45:29;;;;;;;28.92;25.83;;;;;;;5.38;100.00;96716.41;5050716;28;20048;-74
2023/12/28 10:48:10;;;;;;;27.90;24.92;;;;;;;5.44;100.00;96712.63;5053130;28;20048;-75
2023/12/28 10:50:57;;;;;;;25.15;22.60;;;;;;;5.61;100.00;96709.06;5038436;28;20025;-74
2023/12/28 10:53:57;;;;;;;24.05;21.02;;;;;;;5.71;100.00;96699.78;5052016;28;20033;-77
2023/12/28 10:56:38;;;;;;;30.90;25.70;;;;;;;5.93;100.00;96698.56;5052506;28;20033;-74
2023/12/28 10:59:44;;;;;;;24.30;20.42;;;;;;;6.10;100.00;96689.78;5045603;28;20095;-78
2023/12/28 11:02:14;;;;;;;17.02;14.35;;;;;;;6.14;100.00;96680.81;5054504;28;20021;-78
2023/12/28 11:04:50;;;;;;;22.48;19.35;;;;;;;6.11;100.00;96680.16;5054558;28;20059;-73
2023/12/28 11:07:17;;;;;;;44.72;31.33;;;;;;;6.08;100.00;96677.72;5051725;28;20508;-74
2023/12/28 11:09:44;;;;;;;47.90;33.42;;;;;;;6.09;100.00;96674.19;5055743;28;20032;-75